createdAt,value
2018-04-12T00:01:50.256Z,77.90
2018-04-12T00:04:19.951Z,78.50
2018-04-12T00:07:10.531Z,78.50
2018-04-12T00:09:38.261Z,78.30
2018-04-12T00:12:05.821Z,78.40
2018-04-12T00:14:33.303Z,77.40
2018-04-12T00:17:01.577Z,76.00
2018-04-12T00:19:29.100Z,75.80
2018-04-12T00:21:57.437Z,77.60
2018-04-12T00:24:24.935Z,77.60
2018-04-12T00:26:52.493Z,79.70
2018-04-12T00:29:21.591Z,80.50
2018-04-12T00:31:49.158Z,80.40
2018-04-12T00:34:17.424Z,80.50
2018-04-12T00:36:44.922Z,80.40
2018-04-12T00:39:12.477Z,80.40
2018-04-12T00:41:40.052Z,80.60
2018-04-12T00:44:07.607Z,80.50
2018-04-12T00:46:35.115Z,80.60
2018-04-12T00:49:03.387Z,80.50
2018-04-12T00:51:30.944Z,80.50
2018-04-12T00:54:05.068Z,80.30
2018-04-12T00:56:32.588Z,80.20
2018-04-12T00:59:00.075Z,79.90
2018-04-12T01:01:27.559Z,79.80
2018-04-12T01:03:55.755Z,79.80
2018-04-12T01:06:23.709Z,79.80
2018-04-12T01:08:52.146Z,79.80
2018-04-12T01:11:19.629Z,79.70
2018-04-12T01:13:47.895Z,80.00
2018-04-12T01:16:27.489Z,80.10
2018-04-12T01:18:55.752Z,80.00
2018-04-12T01:21:23.304Z,79.90
2018-04-12T01:23:50.836Z,79.80
2018-04-12T01:26:18.430Z,79.80
2018-04-12T01:28:46.708Z,79.80
2018-04-12T01:31:20.050Z,79.70
2018-04-12T01:33:47.560Z,79.80
2018-04-12T01:36:35.160Z,79.90
2018-04-12T01:39:02.675Z,80.00
2018-04-12T01:41:30.946Z,80.20
2018-04-12T01:44:01.607Z,80.00
2018-04-12T01:46:32.043Z,80.30
2018-04-12T01:48:59.778Z,80.20
2018-04-12T01:51:27.382Z,80.30
2018-04-12T01:53:59.028Z,80.30
2018-04-12T01:56:26.633Z,80.50
2018-04-12T01:58:54.892Z,80.40
2018-04-12T02:01:22.385Z,80.40
2018-04-12T02:03:50.688Z,80.50
2018-04-12T02:06:18.182Z,80.50
2018-04-12T02:08:45.673Z,80.50
2018-04-12T02:11:16.400Z,80.30
2018-04-12T02:13:44.570Z,80.40
2018-04-12T02:16:12.181Z,80.30
2018-04-12T02:18:39.966Z,80.60
2018-04-12T02:21:08.255Z,81.10
2018-04-12T02:23:35.784Z,81.10
2018-04-12T02:26:03.275Z,81.30
2018-04-12T02:28:30.818Z,81.30
2018-04-12T02:30:58.412Z,81.40
2018-04-12T02:33:28.631Z,81.30
2018-04-12T02:35:56.352Z,81.20
2018-04-12T02:38:23.888Z,81.30
2018-04-12T02:40:51.387Z,81.50
2018-04-12T02:43:34.802Z,81.50
2018-04-12T02:46:11.817Z,81.50
2018-04-12T02:48:44.223Z,81.50
2018-04-12T02:51:13.931Z,81.70
2018-04-12T02:53:43.646Z,82.00
2018-04-12T02:56:12.683Z,82.00
2018-04-12T02:58:45.376Z,82.40
2018-04-12T03:01:14.654Z,82.70
2018-04-12T03:03:42.891Z,82.70
2018-04-12T03:09:15.517Z,83.40
2018-04-12T03:11:43.962Z,83.40
2018-04-12T03:14:11.734Z,83.60
2018-04-12T03:16:44.424Z,83.60
2018-04-12T03:19:13.839Z,83.90
2018-04-12T03:21:41.347Z,84.10
2018-04-12T03:24:10.654Z,83.90
2018-04-12T03:26:38.221Z,84.00
2018-04-12T03:29:05.711Z,84.20
2018-04-12T03:31:33.186Z,84.50
2018-04-12T03:34:00.710Z,84.80
2018-04-12T03:36:28.432Z,84.90
2018-04-12T03:38:56.703Z,85.00
2018-04-12T03:41:24.972Z,85.00
2018-04-12T03:43:52.582Z,84.80
2018-04-12T03:46:20.163Z,85.10
2018-04-12T03:48:47.679Z,85.30
2018-04-12T03:51:15.256Z,85.50
2018-04-12T03:53:43.506Z,85.70
2018-04-12T03:56:11.044Z,85.50
2018-04-12T03:58:38.584Z,85.60
2018-04-12T04:01:06.075Z,85.80
2018-04-12T04:03:33.663Z,85.90
2018-04-12T04:06:01.184Z,86.50
2018-04-12T04:08:28.758Z,85.80
2018-04-12T04:10:56.963Z,85.70
2018-04-12T04:13:25.043Z,85.50
2018-04-12T04:16:04.961Z,85.60
2018-04-12T04:18:46.967Z,85.20
2018-04-12T04:21:26.146Z,85.20
2018-04-12T04:23:56.703Z,85.30
2018-04-12T04:26:27.899Z,85.10
2018-04-12T04:28:56.179Z,85.00
2018-04-12T04:37:11.264Z,84.90
2018-04-12T04:39:47.321Z,85.70
2018-04-12T04:42:25.280Z,85.10
2018-04-12T04:44:53.612Z,84.90
2018-04-12T04:59:45.188Z,84.90
2018-04-12T05:02:21.580Z,84.70
2018-04-12T05:05:02.904Z,84.70
2018-04-12T05:07:35.020Z,84.60
2018-04-12T05:13:15.759Z,84.00
2018-04-12T05:18:41.432Z,83.80
2018-04-12T05:21:10.832Z,83.70
2018-04-12T05:23:39.171Z,83.30
2018-04-12T05:26:06.728Z,83.20
2018-04-12T05:28:34.235Z,83.00
2018-04-12T05:31:04.093Z,82.80
2018-04-12T05:33:31.822Z,82.50
2018-04-12T05:36:15.771Z,81.90
2018-04-12T05:38:48.976Z,81.60
2018-04-12T05:41:20.123Z,81.40
2018-04-12T05:44:01.940Z,81.10
2018-04-12T05:46:30.160Z,80.60
2018-04-12T05:48:57.708Z,80.60
2018-04-12T05:51:25.320Z,80.40
2018-04-12T05:54:14.630Z,79.20
2018-04-12T05:56:42.214Z,79.20
2018-04-12T05:59:10.645Z,78.10
2018-04-12T06:01:40.294Z,77.30
2018-04-12T06:04:07.854Z,76.50
2018-04-12T06:06:36.104Z,77.20
2018-04-12T06:09:14.838Z,77.20
2018-04-12T06:11:59.559Z,77.10
2018-04-12T06:14:38.869Z,78.20
2018-04-12T06:17:10.658Z,78.20
2018-04-12T06:19:41.681Z,78.10
2018-04-12T06:22:10.043Z,76.80
2018-04-12T06:27:32.701Z,75.70
2018-04-12T06:30:00.329Z,74.50
2018-04-12T06:32:30.690Z,73.30
2018-04-12T06:34:58.209Z,73.30
2018-04-12T06:37:28.552Z,72.80
2018-04-12T06:39:56.032Z,72.80
2018-04-12T06:42:23.536Z,73.00
2018-04-12T06:45:02.109Z,72.30
2018-04-12T06:47:31.575Z,72.40
2018-04-12T06:50:14.427Z,72.90
2018-04-12T06:52:42.140Z,72.40
2018-04-12T06:55:09.665Z,72.30
2018-04-12T06:57:37.170Z,71.10
2018-04-12T07:00:04.682Z,71.00
2018-04-12T07:02:48.792Z,70.10
2018-04-12T07:05:17.710Z,67.70
2018-04-12T07:07:48.876Z,67.60
2018-04-12T07:10:19.252Z,65.50
2018-04-12T07:12:47.004Z,65.50
2018-04-12T07:15:18.576Z,65.60
2018-04-12T07:17:48.470Z,65.40
2018-04-12T07:20:17.972Z,63.50
2018-04-12T07:22:54.229Z,64.00
2018-04-12T07:25:24.810Z,64.10
2018-04-12T07:27:58.332Z,63.70
2018-04-12T07:33:20.717Z,63.10
2018-04-12T07:35:50.300Z,63.60
2018-04-12T07:38:19.616Z,62.50
2018-04-12T07:40:47.539Z,62.30
2018-04-12T07:43:19.959Z,63.40
2018-04-12T07:45:51.022Z,63.10
2018-04-12T07:48:19.391Z,60.90
2018-04-12T07:50:51.047Z,60.80
2018-04-12T07:53:19.473Z,57.70
2018-04-12T07:55:52.046Z,57.00
2018-04-12T07:58:20.715Z,56.80
2018-04-12T08:00:48.635Z,56.90
2018-04-12T08:03:17.776Z,56.80
2018-04-12T08:08:48.462Z,55.20
2018-04-12T08:11:18.088Z,54.80
2018-04-12T08:13:45.960Z,53.40
2018-04-12T08:16:14.563Z,53.00
2018-04-12T08:18:42.292Z,52.40
2018-04-12T08:21:10.459Z,52.40
2018-04-12T08:23:38.060Z,52.50
2018-04-12T08:26:05.535Z,51.20
2018-04-12T08:28:33.894Z,51.20
2018-04-12T08:31:03.195Z,50.90
2018-04-12T08:33:34.142Z,50.70
2018-04-12T08:36:02.536Z,51.80
2018-04-12T08:38:30.041Z,51.70
2018-04-12T08:40:57.524Z,50.80
2018-04-12T08:43:25.031Z,51.30
2018-04-12T08:45:52.676Z,51.10
2018-04-12T08:48:20.919Z,50.80
2018-04-12T08:51:03.201Z,50.60
2018-04-12T08:53:30.830Z,50.60
2018-04-12T08:56:00.343Z,50.60
2018-04-12T08:58:33.960Z,50.60
2018-04-12T09:01:01.697Z,50.90
2018-04-12T09:03:29.204Z,50.20
2018-04-12T09:05:57.619Z,48.50
2018-04-12T09:08:25.189Z,48.30
2018-04-12T09:10:52.878Z,48.50
2018-04-12T09:13:21.201Z,45.60
2018-04-12T09:15:51.779Z,45.50
2018-04-12T09:18:33.048Z,45.30
2018-04-12T09:21:04.270Z,45.30
2018-04-12T09:23:33.083Z,45.70
2018-04-12T09:26:03.405Z,41.40
2018-04-12T09:28:33.034Z,41.40
2018-04-12T09:31:01.826Z,40.00
2018-04-12T09:33:32.957Z,39.80
2018-04-12T09:36:00.476Z,40.10
2018-04-12T09:38:32.540Z,40.60
2018-04-12T09:41:01.689Z,39.30
2018-04-12T09:43:32.904Z,40.90
2018-04-12T09:46:00.443Z,40.50
2018-04-12T09:48:31.734Z,40.50
2018-04-12T09:51:07.679Z,40.80
2018-04-12T09:53:36.369Z,40.60
2018-04-12T09:56:04.028Z,41.60
2018-04-12T09:58:36.569Z,39.30
2018-04-12T10:03:58.158Z,40.60
2018-04-12T10:06:39.044Z,40.70
2018-04-12T10:12:02.881Z,39.20
2018-04-12T10:14:33.259Z,39.20
2018-04-12T10:17:01.563Z,38.50
2018-04-12T10:19:34.875Z,39.20
2018-04-12T10:22:03.338Z,39.30
2018-04-12T10:24:34.356Z,38.70
2018-04-12T10:27:03.894Z,38.10
2018-04-12T10:29:33.413Z,37.90
2018-04-12T10:32:03.672Z,39.80
2018-04-12T10:34:32.257Z,39.50
2018-04-12T10:43:02.123Z,40.10
2018-04-12T13:32:03.509Z,36.20
2018-04-12T13:34:32.820Z,36.70
2018-04-12T13:37:17.932Z,36.40
2018-04-12T13:39:53.650Z,37.80
2018-04-12T13:42:31.941Z,37.40
2018-04-12T13:45:03.267Z,36.40
2018-04-12T13:47:37.848Z,36.80
2018-04-12T13:50:06.361Z,35.80
2018-04-12T13:53:01.482Z,35.80
2018-04-12T13:55:35.079Z,32.80
2018-04-12T14:06:58.837Z,32.00
2018-04-12T14:09:35.727Z,32.20
2018-04-12T14:12:03.297Z,32.10
2018-04-12T14:17:25.539Z,33.00
2018-04-12T14:20:09.322Z,32.60
2018-04-12T14:23:01.565Z,32.60
2018-04-12T14:25:35.352Z,34.10
2018-04-12T14:28:03.992Z,33.00
2018-04-12T14:30:32.642Z,33.40
2018-04-12T14:33:00.231Z,33.10
2018-04-12T14:35:29.775Z,32.70
2018-04-12T14:37:57.550Z,33.60
2018-04-12T14:40:26.533Z,33.40
2018-04-12T14:42:54.132Z,32.90
2018-04-12T14:45:22.681Z,33.40
2018-04-12T14:47:50.296Z,33.70
2018-04-12T14:50:18.192Z,34.70
2018-04-12T14:52:55.002Z,35.20
2018-04-12T14:55:31.691Z,33.50
2018-04-12T14:58:00.020Z,34.10
2018-04-12T15:00:27.670Z,34.10
2018-04-12T15:02:55.387Z,35.60
2018-04-12T15:08:02.527Z,35.00
2018-04-12T15:10:32.076Z,35.70
2018-04-12T15:13:05.453Z,35.60
2018-04-12T15:15:34.275Z,35.00
2018-04-12T15:18:05.210Z,36.20
2018-04-12T15:20:35.136Z,35.30
2018-04-12T15:23:03.695Z,35.30
2018-04-12T15:25:37.393Z,36.50
2018-04-12T15:28:06.278Z,36.70
2018-04-12T15:30:36.245Z,37.30
2018-04-12T15:33:05.181Z,37.00
2018-04-12T15:35:34.894Z,36.80
2018-04-12T15:38:14.627Z,36.60
2018-04-12T15:40:47.962Z,36.60
2018-04-12T15:43:15.771Z,37.50
2018-04-12T15:45:46.465Z,36.40
2018-04-12T15:48:17.143Z,37.40
2018-04-12T15:50:51.358Z,37.90
2018-04-12T16:02:17.613Z,36.30
2018-04-12T16:04:46.009Z,36.80
2018-04-12T16:10:18.381Z,35.80
2018-04-12T16:21:46.298Z,37.00
2018-04-12T16:24:16.311Z,36.80
2018-04-12T16:26:47.526Z,36.80
2018-04-12T16:29:16.071Z,36.70
2018-04-12T16:31:45.761Z,37.00
2018-04-12T16:34:16.813Z,37.00
2018-04-12T16:39:48.318Z,37.20
2018-04-12T16:42:16.018Z,37.60
2018-04-12T16:44:47.264Z,38.40
2018-04-12T16:47:16.514Z,39.40
2018-04-12T16:49:47.137Z,40.00
2018-04-12T16:52:16.455Z,37.80
2018-04-12T16:54:46.201Z,38.30
2018-04-12T17:00:17.457Z,38.30
2018-04-12T17:02:48.577Z,38.40
2018-04-12T17:05:20.419Z,39.80
2018-04-12T17:13:48.954Z,39.70
2018-04-12T17:22:17.858Z,40.60
2018-04-12T17:24:47.094Z,45.30
2018-04-12T17:30:19.838Z,47.40
2018-04-12T17:41:46.447Z,49.80
2018-04-12T17:44:19.108Z,50.20
2018-04-12T17:49:48.969Z,52.10
2018-04-12T17:52:18.111Z,52.50
2018-04-12T17:54:45.963Z,52.70
2018-04-12T17:57:16.828Z,53.10
2018-04-12T18:02:42.794Z,53.80
2018-04-12T18:05:16.074Z,53.50
2018-04-12T18:10:50.507Z,52.40
2018-04-12T18:13:20.791Z,52.20
2018-04-12T18:18:48.239Z,53.30
2018-04-12T18:21:15.851Z,52.00
2018-04-12T18:23:49.055Z,50.70
2018-04-12T18:26:17.466Z,53.10
2018-04-12T18:28:46.742Z,53.10
2018-04-12T18:31:18.864Z,53.40
2018-04-12T18:33:46.476Z,53.40
2018-04-12T18:42:16.320Z,55.00
2018-04-12T18:44:51.117Z,56.20
2018-04-12T18:47:19.668Z,56.50
2018-04-12T18:49:47.418Z,56.90
2018-04-12T18:52:15.771Z,57.20
2018-04-12T18:54:43.329Z,56.50
2018-04-12T18:57:11.739Z,56.10
2018-04-12T18:59:39.279Z,56.90
2018-04-12T19:02:06.760Z,56.10
2018-04-12T19:04:37.252Z,46.30
2018-04-12T19:07:10.978Z,45.10
2018-04-12T19:09:39.439Z,43.10
2018-04-12T19:12:06.955Z,43.10
2018-04-12T19:14:34.461Z,49.50
2018-04-12T19:17:20.913Z,48.60
2018-04-12T19:19:50.529Z,45.90
2018-04-12T19:22:32.451Z,47.90
2018-04-12T19:25:00.767Z,48.90
2018-04-12T19:27:28.337Z,48.90
2018-04-12T19:29:55.827Z,52.60
2018-04-12T19:32:24.292Z,57.20
2018-04-12T19:34:53.993Z,56.30
2018-04-12T19:37:23.942Z,57.70
2018-04-12T19:39:57.816Z,62.30
2018-04-12T19:42:27.415Z,64.50
2018-04-12T19:44:55.716Z,67.00
2018-04-12T19:47:46.227Z,66.90
2018-04-12T19:50:13.820Z,68.00
2018-04-12T19:55:34.377Z,66.20
2018-04-12T19:58:02.121Z,68.30
2018-04-12T20:00:32.573Z,69.60
2018-04-12T20:03:01.145Z,70.90
2018-04-12T20:05:54.332Z,70.80
2018-04-12T20:08:24.025Z,72.40
2018-04-12T20:11:00.049Z,72.40
2018-04-12T20:13:30.574Z,73.50
2018-04-12T20:21:41.184Z,75.70
2018-04-12T20:24:10.904Z,75.40
2018-04-12T20:26:38.610Z,75.00
2018-04-12T20:29:06.339Z,75.30
2018-04-12T20:31:34.135Z,76.30
2018-04-12T20:34:05.111Z,75.50
2018-04-12T20:36:32.855Z,76.30
2018-04-12T20:39:00.514Z,75.50
2018-04-12T20:41:43.195Z,75.80
2018-04-12T20:44:10.931Z,76.50
2018-04-12T20:46:38.664Z,76.20
2018-04-12T20:49:06.631Z,77.30
2018-04-12T20:51:34.664Z,77.40
2018-04-12T20:54:02.373Z,76.40
2018-04-12T20:56:31.837Z,76.30
2018-04-12T20:59:13.105Z,76.30
2018-04-12T21:01:41.832Z,77.80
2018-04-12T21:04:10.568Z,77.30
2018-04-12T21:06:51.473Z,77.40
2018-04-12T21:09:19.152Z,77.40
2018-04-12T21:11:52.722Z,78.40
2018-04-12T21:14:23.073Z,77.60
2018-04-12T21:17:03.872Z,77.50
2018-04-12T21:19:32.317Z,77.50
2018-04-12T21:22:00.467Z,77.30
2018-04-12T21:24:45.365Z,77.30
2018-04-12T21:30:31.382Z,78.00
2018-04-12T21:32:59.088Z,78.40
2018-04-12T21:35:27.541Z,78.30
2018-04-12T21:37:55.171Z,78.30
2018-04-12T21:40:22.818Z,78.90
2018-04-12T21:43:07.056Z,78.70
2018-04-12T21:45:35.653Z,78.40
2018-04-12T21:48:03.420Z,78.30
2018-04-12T21:53:10.570Z,78.80
2018-04-12T21:55:38.417Z,78.80
2018-04-12T21:58:06.684Z,79.20
2018-04-12T22:00:34.175Z,79.10
2018-04-12T22:03:01.665Z,79.30
2018-04-12T22:05:29.889Z,80.20
2018-04-12T22:07:58.163Z,80.20
2018-04-12T22:10:25.657Z,80.20
2018-04-12T22:12:54.130Z,80.00
2018-04-12T22:15:21.634Z,80.40
2018-04-12T22:17:49.122Z,80.10
2018-04-12T22:20:16.987Z,79.30
2018-04-12T22:22:44.480Z,79.00
2018-04-12T22:25:12.743Z,79.50
2018-04-12T22:27:40.236Z,79.50
2018-04-12T22:30:09.498Z,79.50
2018-04-12T22:32:37.114Z,79.30
2018-04-12T22:35:04.603Z,79.10
2018-04-12T22:37:32.850Z,79.10
2018-04-12T22:40:00.379Z,78.30
2018-04-12T22:42:28.194Z,77.90
2018-04-12T22:44:55.700Z,79.10
2018-04-12T22:47:23.944Z,79.30
2018-04-12T22:49:51.400Z,79.30
2018-04-12T22:52:18.853Z,80.00
2018-04-12T22:54:46.298Z,78.20
2018-04-12T22:57:20.518Z,80.60
2018-04-12T23:00:14.760Z,80.00
2018-04-12T23:02:42.309Z,80.00
2018-04-12T23:05:09.801Z,79.20
2018-04-12T23:07:37.298Z,79.30
2018-04-12T23:10:04.767Z,78.40
2018-04-12T23:12:32.345Z,77.10
2018-04-12T23:14:59.869Z,77.50
2018-04-12T23:17:27.344Z,78.20
2018-04-12T23:19:55.720Z,79.30
2018-04-12T23:22:23.246Z,79.10
2018-04-12T23:24:50.802Z,79.50
2018-04-12T23:27:18.663Z,79.30
2018-04-12T23:29:46.177Z,79.00
2018-04-12T23:32:13.655Z,79.10
2018-04-12T23:34:41.899Z,80.70
2018-04-12T23:37:09.385Z,80.70
2018-04-12T23:39:36.872Z,79.70
2018-04-12T23:42:04.392Z,78.40
2018-04-12T23:44:31.923Z,79.90
2018-04-12T23:47:13.658Z,80.60
2018-04-12T23:49:41.347Z,80.60
2018-04-12T23:52:08.847Z,81.20
2018-04-12T23:54:36.517Z,81.50
2018-04-12T23:57:04.134Z,81.70
2018-04-12T23:59:31.610Z,80.70
